Time;durP1;ratioP1;P1;durP2;ratioP2;P2;SDS_P1;SDS_P2;PMS_P1;PMS_P2;Temp;Humidity;BMP_temperature;BMP_pressure;BME280_temperature;BME280_humidity;BME280_pressure;Samples;Min_cycle;Max_cycle;Signal;HPM_P1;HPM_P2
2021/06/23 00:03:10;;;;;;;17.40;6.07;;;13.80;99.90;;;;;;12395299;28;20070;-39
2021/06/23 00:09:12;;;;;;;15.20;5.35;;;13.80;99.90;;;;;;12394767;28;20058;-41
2021/06/23 00:15:16;;;;;;;13.90;5.57;;;13.90;99.90;;;;;;12390616;28;20105;-42
2021/06/23 00:21:18;;;;;;;9.98;5.75;;;13.80;99.90;;;;;;12387149;28;20566;-40
2021/06/23 00:27:20;;;;;;;11.65;5.43;;;13.80;99.90;;;;;;12390162;28;20117;-39
2021/06/23 00:33:29;;;;;;;15.82;5.88;;;13.90;99.90;;;;;;12390118;28;20058;-39
2021/06/23 00:39:31;;;;;;;16.95;5.70;;;13.80;99.90;;;;;;12394010;28;20145;-40
2021/06/23 00:45:33;;;;;;;11.75;5.30;;;13.90;99.90;;;;;;12389096;28;20724;-41
2021/06/23 00:51:36;;;;;;;14.60;5.10;;;13.80;99.90;;;;;;12390118;28;20058;-40
2021/06/23 00:57:40;;;;;;;18.10;5.35;;;13.80;99.90;;;;;;12389034;28;20554;-40
2021/06/23 01:03:42;;;;;;;10.47;5.00;;;13.70;99.90;;;;;;12388186;28;20070;-39
2021/06/23 01:09:45;;;;;;;14.07;5.20;;;13.70;99.90;;;;;;12392738;28;20046;-39
2021/06/23 01:15:49;;;;;;;11.65;4.97;;;13.60;99.90;;;;;;12388821;28;20053;-39
2021/06/23 01:21:50;;;;;;;17.42;5.15;;;13.80;99.90;;;;;;12398803;28;20141;-39
2021/06/23 01:27:52;;;;;;;11.20;5.30;;;13.70;99.90;;;;;;12398737;28;20133;-39
2021/06/23 01:33:54;;;;;;;11.95;4.40;;;13.70;99.90;;;;;;12400020;28;20137;-39
2021/06/23 01:39:58;;;;;;;16.52;5.05;;;13.70;99.90;;;;;;12396123;28;20248;-39
2021/06/23 01:46:00;;;;;;;15.83;4.43;;;13.80;99.90;;;;;;12401117;28;20433;-39
2021/06/23 01:52:02;;;;;;;16.85;4.10;;;13.80;99.90;;;;;;12395289;28;20809;-41
2021/06/23 01:58:09;;;;;;;10.20;3.50;;;13.70;99.90;;;;;;12401115;28;20161;-39
2021/06/23 02:04:18;;;;;;;10.02;3.15;;;13.70;99.90;;;;;;12397534;28;20491;-40
2021/06/23 02:10:37;;;;;;;9.68;3.55;;;13.60;99.90;;;;;;12398024;28;20141;-39
2021/06/23 02:16:41;;;;;;;12.55;3.58;;;13.40;99.90;;;;;;12398405;28;20165;-39
2021/06/23 02:22:44;;;;;;;11.82;4.35;;;13.60;99.90;;;;;;12397480;28;20049;-39
2021/06/23 02:28:46;;;;;;;18.27;4.50;;;13.70;99.90;;;;;;12396754;28;20102;-39
2021/06/23 02:34:52;;;;;;;17.23;4.85;;;13.80;99.90;;;;;;12395943;28;20054;-40
2021/06/23 02:40:54;;;;;;;12.35;4.57;;;13.90;99.90;;;;;;12394954;28;20451;-41
2021/06/23 02:46:56;;;;;;;9.80;4.10;;;13.80;99.90;;;;;;12400027;28;20742;-39
2021/06/23 02:52:59;;;;;;;10.38;4.30;;;13.80;99.90;;;;;;12399490;28;20050;-39
2021/06/23 02:59:04;;;;;;;10.80;4.38;;;13.80;99.90;;;;;;12392703;28;20404;-42
2021/06/23 03:05:07;;;;;;;14.57;4.10;;;13.70;99.90;;;;;;12397878;28;20056;-39
2021/06/23 03:11:09;;;;;;;9.60;4.40;;;13.70;99.90;;;;;;12393031;28;20125;-39
2021/06/23 03:17:11;;;;;;;8.52;3.55;;;13.70;99.90;;;;;;12396105;28;20140;-39
2021/06/23 03:23:13;;;;;;;10.65;3.50;;;13.60;99.90;;;;;;12394441;28;20057;-39
2021/06/23 03:29:33;;;;;;;11.98;3.90;;;13.80;99.90;;;;;;12393781;28;20154;-39
2021/06/23 03:35:35;;;;;;;9.20;3.70;;;13.90;99.90;;;;;;12392008;28;20767;-39
2021/06/23 03:41:37;;;;;;;10.55;3.90;;;13.90;99.90;;;;;;12394323;28;20046;-40
2021/06/23 03:47:40;;;;;;;11.02;4.20;;;13.90;99.90;;;;;;12397624;28;20175;-39
2021/06/23 03:53:42;;;;;;;13.75;4.55;;;13.90;99.90;;;;;;12392562;28;20062;-39
2021/06/23 03:59:44;;;;;;;14.50;4.32;;;13.80;99.90;;;;;;12393638;28;20058;-39
2021/06/23 04:05:46;;;;;;;14.60;5.00;;;13.80;99.90;;;;;;12389635;28;20141;-39
2021/06/23 04:11:48;;;;;;;15.30;3.80;;;13.80;99.90;;;;;;12392025;28;20057;-41
2021/06/23 04:17:50;;;;;;;15.23;4.32;;;13.90;99.90;;;;;;12393421;28;20137;-39
2021/06/23 04:23:52;;;;;;;11.30;4.10;;;13.90;99.90;;;;;;12395106;28;20149;-39
2021/06/23 04:29:54;;;;;;;11.68;4.05;;;13.90;99.90;;;;;;12392399;28;20734;-39
2021/06/23 04:35:56;;;;;;;14.02;3.88;;;13.90;99.90;;;;;;12390053;28;20148;-39
2021/06/23 04:41:58;;;;;;;11.23;3.65;;;13.90;99.90;;;;;;12391686;28;20061;-39
2021/06/23 04:48:00;;;;;;;15.43;4.05;;;13.90;99.90;;;;;;12379636;28;20042;-40
2021/06/23 04:54:02;;;;;;;10.50;3.90;;;13.80;99.90;;;;;;12387740;28;20062;-40
2021/06/23 05:00:07;;;;;;;14.52;3.85;;;13.80;99.90;;;;;;12377641;28;20077;-39
2021/06/23 05:06:10;;;;;;;11.48;3.22;;;13.90;99.90;;;;;;12393024;28;20046;-39
2021/06/23 05:12:11;;;;;;;12.43;3.17;;;13.90;99.90;;;;;;12385859;28;20092;-39
2021/06/23 05:18:14;;;;;;;9.85;2.88;;;13.70;99.90;;;;;;12385290;28;20503;-39
2021/06/23 05:24:17;;;;;;;11.40;3.42;;;14.00;99.90;;;;;;12382119;28;20049;-40
2021/06/23 05:30:19;;;;;;;15.02;3.58;;;14.00;99.90;;;;;;12386050;28;20046;-40
2021/06/23 05:36:22;;;;;;;10.05;3.63;;;14.10;99.90;;;;;;12388599;28;20054;-41
2021/06/23 05:42:25;;;;;;;12.68;3.70;;;13.90;99.90;;;;;;12384105;28;20085;-39
2021/06/23 05:48:27;;;;;;;10.10;3.45;;;13.80;99.90;;;;;;12382312;28;20189;-38
2021/06/23 05:54:29;;;;;;;9.38;2.83;;;13.80;99.90;;;;;;12386966;28;20054;-42
2021/06/23 06:00:31;;;;;;;11.80;3.30;;;13.90;99.90;;;;;;12381424;28;20050;-39
2021/06/23 06:06:33;;;;;;;17.60;4.32;;;13.80;99.90;;;;;;12396209;28;20047;-40
2021/06/23 06:12:35;;;;;;;10.75;3.05;;;13.90;99.90;;;;;;12395678;28;20045;-39
2021/06/23 06:18:37;;;;;;;10.60;3.50;;;14.00;99.90;;;;;;12391614;28;20057;-39
2021/06/23 06:24:39;;;;;;;10.07;3.47;;;14.20;99.90;;;;;;12391593;28;20502;-38
2021/06/23 06:30:41;;;;;;;10.50;3.67;;;14.10;99.90;;;;;;12384927;28;20050;-40
2021/06/23 06:36:43;;;;;;;13.07;3.50;;;14.30;99.90;;;;;;12387452;28;20062;-39
2021/06/23 06:42:45;;;;;;;12.07;3.78;;;14.10;99.90;;;;;;12392550;28;20046;-40
2021/06/23 06:48:47;;;;;;;9.52;3.33;;;14.00;99.90;;;;;;12387622;28;20144;-39
2021/06/23 06:54:49;;;;;;;10.70;3.25;;;14.00;99.90;;;;;;12391491;28;20073;-41
2021/06/23 07:00:50;;;;;;;11.95;3.15;;;13.90;99.90;;;;;;12394962;28;20100;-39
2021/06/23 07:06:53;;;;;;;10.98;3.28;;;13.90;99.90;;;;;;12393237;28;20053;-40
2021/06/23 07:12:55;;;;;;;12.85;3.75;;;14.10;99.90;;;;;;12392761;28;20101;-39
2021/06/23 07:18:57;;;;;;;10.98;3.30;;;14.20;99.90;;;;;;12389139;28;20669;-39
2021/06/23 07:24:59;;;;;;;9.90;3.78;;;14.30;99.90;;;;;;12387114;28;20050;-40
2021/06/23 07:31:05;;;;;;;9.65;3.78;;;14.50;99.90;;;;;;12392976;28;20050;-39
2021/06/23 07:37:08;;;;;;;14.15;3.60;;;14.80;99.90;;;;;;12390774;28;20061;-40
2021/06/23 07:43:11;;;;;;;13.13;3.80;;;14.80;99.90;;;;;;12391101;28;20813;-39
2021/06/23 07:49:14;;;;;;;11.73;3.60;;;14.90;99.90;;;;;;12391837;28;20046;-40
2021/06/23 07:55:51;;;;;;;10.98;2.80;;;14.90;99.90;;;;;;12385589;28;20124;-40
2021/06/23 08:08:24;;;;;;;12.43;3.42;;;15.10;99.90;;;;;;12387320;28;20636;-39
2021/06/23 08:14:26;;;;;;;12.32;2.88;;;15.60;99.90;;;;;;12390306;28;20541;-40
2021/06/23 08:20:29;;;;;;;10.60;3.20;;;15.70;99.90;;;;;;12386061;28;20473;-39
2021/06/23 08:26:31;;;;;;;14.07;3.55;;;15.70;99.90;;;;;;12384268;28;20051;-41
2021/06/23 08:32:33;;;;;;;7.97;2.80;;;15.60;99.90;;;;;;12386176;28;20445;-40
2021/06/23 08:38:35;;;;;;;8.50;3.15;;;15.80;99.90;;;;;;12387948;28;20822;-39
2021/06/23 08:44:37;;;;;;;14.18;3.60;;;15.90;99.90;;;;;;12379801;28;20042;-39
2021/06/23 08:50:40;;;;;;;13.98;3.25;;;15.90;99.90;;;;;;12390840;28;20495;-39
2021/06/23 08:56:42;;;;;;;12.50;3.33;;;15.90;99.90;;;;;;12385454;28;20062;-39
2021/06/23 09:02:45;;;;;;;11.30;3.53;;;15.90;99.90;;;;;;12386123;28;20169;-39
2021/06/23 09:08:47;;;;;;;13.70;3.35;;;16.20;99.90;;;;;;12385271;28;20042;-38
2021/06/23 09:14:50;;;;;;;11.07;3.40;;;16.50;99.90;;;;;;12378113;28;20052;-42
2021/06/23 09:21:13;;;;;;;12.67;3.40;;;16.50;99.90;;;;;;12378598;28;20103;-40
2021/06/23 09:27:27;;;;;;;8.20;3.17;;;16.70;99.90;;;;;;12377510;28;20042;-39
2021/06/23 09:33:28;;;;;;;8.68;3.25;;;16.60;99.90;;;;;;12379127;28;20104;-40
2021/06/23 09:39:31;;;;;;;13.70;3.42;;;16.60;99.90;;;;;;12383600;28;20052;-39
2021/06/23 09:45:33;;;;;;;9.23;3.78;;;16.80;99.90;;;;;;12390346;28;20485;-41
2021/06/23 09:51:48;;;;;;;7.75;4.00;;;16.80;99.90;;;;;;12393581;28;20124;-39
2021/06/23 09:58:06;;;;;;;10.35;3.85;;;17.00;99.90;;;;;;12391982;28;20173;-39
2021/06/23 10:04:09;;;;;;;11.35;3.92;;;17.10;99.90;;;;;;12390613;28;20446;-39
2021/06/23 10:10:15;;;;;;;11.32;3.40;;;17.20;99.90;;;;;;12396191;28;20107;-39
2021/06/23 10:16:17;;;;;;;10.98;4.25;;;17.20;99.90;;;;;;12388321;28;20054;-40
2021/06/23 10:22:20;;;;;;;12.85;4.50;;;17.10;99.90;;;;;;12393776;28;20058;-41
2021/06/23 10:28:29;;;;;;;12.02;3.95;;;17.20;99.90;;;;;;12389361;28;20050;-39
2021/06/23 10:34:31;;;;;;;10.82;3.65;;;17.20;99.90;;;;;;12393436;28;20066;-40
2021/06/23 10:40:33;;;;;;;10.15;4.30;;;17.90;99.90;;;;;;12392762;28;20158;-39
2021/06/23 10:46:39;;;;;;;16.30;4.95;;;18.10;99.90;;;;;;12384705;28;20059;-40
2021/06/23 10:52:46;;;;;;;9.18;4.43;;;17.50;99.90;;;;;;12385173;28;20049;-41
2021/06/23 10:58:47;;;;;;;12.30;5.00;;;18.00;99.90;;;;;;12387310;28;20092;-39
2021/06/23 11:05:01;;;;;;;9.63;4.32;;;18.00;99.90;;;;;;12392107;28;20050;-39
2021/06/23 11:11:08;;;;;;;9.68;5.03;;;18.30;99.90;;;;;;12388717;28;20735;-39
2021/06/23 11:17:30;;;;;;;11.80;4.72;;;18.30;99.90;;;;;;12395881;28;20099;-40
2021/06/23 11:23:51;;;;;;;13.35;5.07;;;18.10;99.90;;;;;;12386827;28;20053;-39
2021/06/23 11:29:52;;;;;;;11.85;4.45;;;18.30;99.90;;;;;;12381191;28;20132;-39
2021/06/23 11:35:55;;;;;;;11.40;4.50;;;18.30;99.90;;;;;;12391236;28;20050;-39
2021/06/23 11:41:57;;;;;;;12.87;5.27;;;18.60;99.90;;;;;;12389976;28;20133;-38
2021/06/23 11:47:59;;;;;;;10.90;4.55;;;18.50;99.90;;;;;;12387291;28;20054;-40
2021/06/23 11:54:03;;;;;;;13.18;5.05;;;18.30;99.90;;;;;;12400554;28;20161;-39
2021/06/23 12:00:06;;;;;;;;;;;18.30;99.90;;;;;;12390072;28;20061;-40
2021/06/23 12:06:08;;;;;;;10.93;5.72;;;18.20;99.90;;;;;;12387346;28;19972;-39
2021/06/23 12:12:10;;;;;;;14.57;5.47;;;18.20;99.90;;;;;;12390164;28;20104;-39
2021/06/23 12:18:12;;;;;;;12.65;5.70;;;18.50;99.90;;;;;;12393633;28;20487;-39
2021/06/23 12:24:14;;;;;;;13.75;5.40;;;18.30;99.90;;;;;;12387527;28;20566;-39
2021/06/23 12:30:16;;;;;;;11.18;5.55;;;18.70;99.90;;;;;;12389694;28;21039;-40
2021/06/23 12:36:18;;;;;;;11.55;5.68;;;18.70;99.90;;;;;;12382234;28;20046;-41
2021/06/23 12:42:20;;;;;;;14.73;5.47;;;18.80;99.90;;;;;;12388190;28;20153;-39
2021/06/23 12:48:22;;;;;;;10.90;5.57;;;19.30;99.90;;;;;;12383135;28;20050;-39
2021/06/23 12:54:24;;;;;;;11.18;4.68;;;19.20;99.90;;;;;;12387993;28;20050;-39
2021/06/23 13:00:27;;;;;;;12.07;5.40;;;19.60;99.90;;;;;;12383267;28;20049;-40
2021/06/23 13:06:30;;;;;;;10.32;4.57;;;19.90;99.90;;;;;;12385945;28;20056;-40
2021/06/23 13:12:32;;;;;;;8.70;4.75;;;19.50;99.90;;;;;;12391254;28;20092;-39
2021/06/23 13:18:34;;;;;;;11.82;5.78;;;19.00;99.90;;;;;;12392658;28;20080;-39
2021/06/23 13:24:36;;;;;;;9.05;4.88;;;19.00;99.90;;;;;;12393713;28;20140;-42
2021/06/23 13:30:38;;;;;;;10.02;4.93;;;18.70;99.90;;;;;;12394502;28;20546;-40
2021/06/23 13:36:41;;;;;;;12.57;5.87;;;18.70;99.90;;;;;;12400947;28;20069;-39
2021/06/23 13:42:43;;;;;;;9.90;5.20;;;18.50;99.90;;;;;;12397516;28;20038;-40
2021/06/23 13:48:45;;;;;;;10.93;5.57;;;18.40;99.90;;;;;;12397783;28;20416;-40
2021/06/23 13:54:47;;;;;;;12.80;5.15;;;18.40;99.90;;;;;;12387076;28;20050;-39
2021/06/23 14:00:48;;;;;;;13.93;5.55;;;18.20;99.90;;;;;;12389240;28;20539;-39
2021/06/23 14:06:50;;;;;;;10.90;5.68;;;18.20;99.90;;;;;;12391931;28;20051;-39
2021/06/23 14:12:54;;;;;;;11.07;5.07;;;18.20;99.90;;;;;;12393027;28;20603;-39
2021/06/23 14:18:57;;;;;;;10.43;4.97;;;18.40;99.90;;;;;;12394762;28;20100;-40
2021/06/23 14:24:59;;;;;;;11.63;4.97;;;18.20;99.90;;;;;;12396663;28;20133;-40
2021/06/23 14:31:04;;;;;;;14.73;5.25;;;18.20;99.90;;;;;;12396314;28;20046;-40
2021/06/23 14:37:06;;;;;;;13.40;5.20;;;18.10;99.90;;;;;;12400557;28;20054;-39
2021/06/23 14:43:08;;;;;;;12.10;6.07;;;18.30;99.90;;;;;;12384861;28;20104;-40
2021/06/23 14:49:10;;;;;;;9.73;5.50;;;18.40;99.90;;;;;;12393621;28;20129;-40
2021/06/23 14:55:13;;;;;;;10.32;5.10;;;18.60;99.90;;;;;;12392672;28;20067;-39
2021/06/23 15:01:14;;;;;;;12.65;5.60;;;18.60;99.90;;;;;;12391377;28;20077;-40
2021/06/23 15:07:16;;;;;;;8.13;4.32;;;18.40;99.90;;;;;;12382753;28;20050;-40
2021/06/23 15:13:18;;;;;;;8.40;4.82;;;18.30;99.90;;;;;;12393330;28;20128;-39
2021/06/23 15:19:20;;;;;;;11.52;4.47;;;18.60;99.90;;;;;;12382611;28;20081;-39
2021/06/23 15:25:22;;;;;;;8.80;3.92;;;18.80;99.90;;;;;;12394591;28;20387;-40
2021/06/23 15:31:24;;;;;;;9.75;4.53;;;18.90;99.90;;;;;;12395440;28;20183;-39
2021/06/23 15:37:26;;;;;;;9.07;4.03;;;18.90;99.90;;;;;;12389859;28;20054;-40
2021/06/23 15:43:29;;;;;;;10.75;4.28;;;18.90;99.90;;;;;;12386256;28;20069;-41
2021/06/23 15:49:30;;;;;;;9.27;4.22;;;18.80;99.90;;;;;;12385985;28;20096;-39
2021/06/23 15:55:33;;;;;;;8.70;4.00;;;18.60;99.90;;;;;;12384426;28;20581;-39
2021/06/23 16:01:42;;;;;;;9.85;4.47;;;18.60;99.90;;;;;;12515623;28;20393;-41
2021/06/23 16:07:44;;;;;;;10.70;4.65;;;18.40;99.90;;;;;;12433702;28;20479;-39
2021/06/23 16:13:46;;;;;;;12.90;4.70;;;18.20;99.90;;;;;;12433319;28;20042;-40
2021/06/23 16:19:48;;;;;;;6.97;3.63;;;18.10;99.90;;;;;;12432088;28;20077;-39
2021/06/23 16:25:49;;;;;;;8.93;4.07;;;18.10;99.90;;;;;;12433735;28;20543;-39
2021/06/23 16:31:51;;;;;;;7.35;4.22;;;18.00;99.90;;;;;;12434709;28;20137;-39
2021/06/23 16:37:54;;;;;;;9.10;4.15;;;18.00;99.90;;;;;;12427866;28;20319;-39
2021/06/23 16:43:56;;;;;;;12.40;4.75;;;18.10;99.90;;;;;;12434447;28;20103;-48
2021/06/23 16:49:58;;;;;;;7.57;4.07;;;18.00;99.90;;;;;;12427855;28;20054;-41
2021/06/23 16:56:01;;;;;;;7.30;3.65;;;18.00;99.90;;;;;;12428598;28;20613;-39
2021/06/23 17:02:03;;;;;;;10.50;3.90;;;18.10;99.90;;;;;;12425774;28;20050;-39
2021/06/23 17:08:06;;;;;;;5.57;3.22;;;18.20;99.90;;;;;;12419518;28;20054;-39
2021/06/23 17:14:09;;;;;;;9.60;3.67;;;18.30;99.90;;;;;;12398182;28;20437;-39
2021/06/23 17:20:12;;;;;;;;;;;18.10;99.90;;;;;;12395522;28;20544;-41
2021/06/23 17:26:13;;;;;;;6.68;3.40;;;18.10;99.90;;;;;;12393609;28;19922;-39
2021/06/23 17:32:15;;;;;;;7.10;3.42;;;18.20;99.90;;;;;;12391993;28;20639;-40
2021/06/23 17:38:17;;;;;;;7.70;4.10;;;18.20;99.90;;;;;;12393482;28;20046;-40
2021/06/23 17:44:19;;;;;;;8.82;3.72;;;18.10;99.90;;;;;;12396001;28;20129;-39
2021/06/23 17:50:24;;;;;;;11.23;4.18;;;18.00;99.90;;;;;;12391373;28;20445;-39
2021/06/23 17:56:26;;;;;;;7.25;3.58;;;18.00;99.90;;;;;;12397775;28;20169;-39
2021/06/23 18:02:28;;;;;;;7.95;4.47;;;18.00;99.90;;;;;;12395097;28;20053;-39
2021/06/23 18:08:31;;;;;;;6.72;4.38;;;17.90;99.90;;;;;;12401062;28;20057;-39
2021/06/23 18:14:33;;;;;;;7.88;4.00;;;18.00;99.90;;;;;;12393636;28;20054;-39
2021/06/23 18:20:40;;;;;;;9.80;3.95;;;17.90;99.90;;;;;;12389347;28;20050;-39
2021/06/23 18:26:42;;;;;;;9.82;3.85;;;18.00;99.90;;;;;;12394317;28;20069;-39
2021/06/23 18:32:44;;;;;;;7.55;4.20;;;17.90;99.90;;;;;;12390071;28;20724;-39
2021/06/23 18:38:46;;;;;;;9.40;4.38;;;17.80;99.90;;;;;;12395998;28;20046;-39
2021/06/23 18:44:48;;;;;;;10.32;5.05;;;17.70;99.90;;;;;;12395033;28;20133;-39
2021/06/23 18:50:50;;;;;;;8.85;5.32;;;17.50;99.90;;;;;;12383746;28;20354;-42
2021/06/23 18:56:52;;;;;;;10.35;4.80;;;17.40;99.90;;;;;;12392677;28;20046;-39
2021/06/23 19:02:54;;;;;;;8.77;4.78;;;17.40;99.90;;;;;;12390594;28;20116;-40
2021/06/23 19:08:55;;;;;;;8.95;4.60;;;17.30;99.90;;;;;;12387409;28;20081;-39
2021/06/23 19:14:57;;;;;;;8.65;5.13;;;17.20;99.90;;;;;;12385930;28;20111;-39
2021/06/23 19:20:59;;;;;;;7.65;4.93;;;17.20;99.90;;;;;;12392999;28;20153;-40
2021/06/23 19:27:01;;;;;;;10.95;5.18;;;17.10;99.90;;;;;;12387268;28;20057;-41
2021/06/23 19:33:03;;;;;;;10.65;4.90;;;17.10;99.90;;;;;;12392809;28;20671;-39
2021/06/23 19:39:06;;;;;;;10.40;5.18;;;17.10;99.90;;;;;;12385878;28;20054;-39
2021/06/23 19:45:09;;;;;;;10.30;5.03;;;17.00;99.90;;;;;;12382588;28;20050;-39
2021/06/23 19:51:11;;;;;;;11.30;5.27;;;17.20;99.90;;;;;;12386310;28;20038;-39
2021/06/23 19:57:13;;;;;;;12.65;5.85;;;17.20;99.90;;;;;;12386832;28;20547;-39
2021/06/23 20:03:15;;;;;;;9.73;5.45;;;17.20;99.90;;;;;;12392799;28;20050;-39
2021/06/23 20:09:16;;;;;;;11.07;5.95;;;17.10;99.90;;;;;;12390252;28;20057;-38
2021/06/23 20:15:19;;;;;;;9.70;5.80;;;17.00;99.90;;;;;;12389835;28;20046;-41
2021/06/23 20:21:21;;;;;;;11.18;6.57;;;17.10;99.90;;;;;;12390119;28;20045;-40
2021/06/23 20:27:23;;;;;;;11.40;7.00;;;16.90;99.90;;;;;;12392600;28;20133;-39
2021/06/23 20:33:25;;;;;;;14.60;7.10;;;16.70;99.90;;;;;;12390546;28;20042;-39
2021/06/23 20:39:27;;;;;;;13.38;7.28;;;16.70;99.90;;;;;;12384086;28;20156;-39
2021/06/23 20:45:29;;;;;;;13.25;7.72;;;16.50;99.90;;;;;;12386414;28;20087;-42
2021/06/23 20:51:31;;;;;;;11.52;7.05;;;16.50;99.90;;;;;;12392389;28;20061;-39
2021/06/23 20:57:33;;;;;;;13.35;7.35;;;16.50;99.90;;;;;;12398686;28;20058;-39
2021/06/23 21:03:35;;;;;;;13.68;7.07;;;16.50;99.90;;;;;;12396348;28;20115;-39
2021/06/23 21:09:37;;;;;;;18.15;7.68;;;16.50;99.90;;;;;;12396162;28;20156;-39
2021/06/23 21:15:44;;;;;;;13.38;6.82;;;16.50;99.90;;;;;;12394643;28;20477;-39
2021/06/23 21:21:45;;;;;;;13.48;6.95;;;16.50;99.90;;;;;;12396581;28;20053;-40
2021/06/23 21:27:47;;;;;;;14.20;7.05;;;16.50;99.90;;;;;;12388937;28;20053;-40
2021/06/23 21:33:52;;;;;;;14.80;6.85;;;16.50;99.90;;;;;;12392177;28;20487;-39
2021/06/23 21:40:19;;;;;;;10.70;6.70;;;16.40;99.90;;;;;;12392495;28;20456;-40
2021/06/23 21:46:30;;;;;;;14.60;7.22;;;16.40;99.90;;;;;;12382734;28;20922;-39
2021/06/23 21:52:32;;;;;;;12.07;6.32;;;16.30;99.90;;;;;;12387863;28;20046;-38
2021/06/23 21:58:34;;;;;;;12.82;6.60;;;16.10;99.90;;;;;;12397531;28;20054;-40
2021/06/23 22:04:38;;;;;;;13.27;5.55;;;16.00;99.90;;;;;;12393102;28;20124;-39
2021/06/23 22:10:40;;;;;;;14.20;5.80;;;16.00;99.90;;;;;;12394239;28;20104;-40
2021/06/23 22:16:42;;;;;;;10.88;6.00;;;15.90;99.90;;;;;;12393951;28;20117;-39
2021/06/23 22:22:51;;;;;;;14.02;5.72;;;15.80;99.90;;;;;;12391178;28;20084;-39
2021/06/23 22:28:55;;;;;;;12.90;6.07;;;15.70;99.90;;;;;;12391476;28;20093;-39
2021/06/23 22:35:00;;;;;;;12.65;5.03;;;15.70;99.90;;;;;;12394768;28;20548;-39
2021/06/23 22:41:10;;;;;;;12.50;5.20;;;15.60;99.90;;;;;;12390754;28;20531;-39
2021/06/23 22:53:40;;;;;;;11.30;5.18;;;15.50;99.90;;;;;;12394559;28;20516;-40
2021/06/23 22:59:42;;;;;;;15.00;4.88;;;15.50;99.90;;;;;;12393614;28;20046;-39
2021/06/23 23:05:45;;;;;;;12.88;5.20;;;15.50;99.90;;;;;;12384486;28;20145;-38
2021/06/23 23:11:48;;;;;;;9.90;4.90;;;15.50;99.90;;;;;;12397143;28;20526;-39
2021/06/23 23:17:50;;;;;;;11.75;5.75;;;15.40;99.90;;;;;;12384641;28;20049;-39
2021/06/23 23:23:52;;;;;;;14.18;5.18;;;15.30;99.90;;;;;;12390872;28;20045;-41
2021/06/23 23:29:54;;;;;;;14.82;5.32;;;15.30;99.90;;;;;;12392130;28;20054;-40
2021/06/23 23:35:56;;;;;;;14.32;5.47;;;15.40;99.90;;;;;;12386927;28;20568;-39
2021/06/23 23:41:58;;;;;;;13.32;5.47;;;15.20;99.90;;;;;;12385592;28;20058;-39
2021/06/23 23:48:00;;;;;;;14.15;5.10;;;15.20;99.90;;;;;;12385156;28;20073;-40
2021/06/23 23:54:03;;;;;;;11.30;5.38;;;15.30;99.90;;;;;;12387312;28;20042;-40
